Urbana, Illinois
Current Conditions -  °F | °C
As of 1:53 PM on Thursday 20 Nov 2014 (Local Time) from KCMI Reporting Station
Clear Clear  
Wind Chill: -6°   Ceiling: Unl
Heat Index:   Visibility: 10mi
Dew Point: -11°   Wind: 20mph
Humidity: 43%   Direction: 260°W
Pressure: 30.14"   Gusts: 26mph
Location:  40.12°N, 88.2°W
Report Text: KCMI 201953Z 26017G23KT 10SM CLR 01/M11 A3014 RMK AO2 SLP217 T00061106 $
Loading
Personal Weather Stations






























Interactive Weather Map New forecast layout! Learn more

10-Day Weather Forecast

Advertisements
Track Severe Weather on mobile